createdAt,value
2018-07-27T00:02:01.544Z,62.90
2018-07-27T00:04:30.038Z,63.50
2018-07-27T00:06:58.492Z,64.40
2018-07-27T00:09:26.903Z,64.30
2018-07-27T00:11:55.339Z,65.20
2018-07-27T00:14:23.798Z,66.10
2018-07-27T00:16:52.293Z,66.10
2018-07-27T00:19:20.691Z,65.70
2018-07-27T00:21:49.236Z,64.50
2018-07-27T00:26:45.772Z,62.20
2018-07-27T00:29:14.161Z,61.80
2018-07-27T00:31:42.620Z,62.20
2018-07-27T00:34:11.000Z,62.70
2018-07-27T00:36:39.463Z,63.90
2018-07-27T00:39:09.348Z,64.00
2018-07-27T00:41:37.803Z,63.60
2018-07-27T00:44:06.520Z,62.70
2018-07-27T00:46:34.987Z,62.80
2018-07-27T00:49:03.412Z,63.60
2018-07-27T00:51:31.786Z,62.80
2018-07-27T00:54:00.289Z,63.20
2018-07-27T00:56:28.817Z,62.20
2018-07-27T00:58:57.252Z,62.10
2018-07-27T01:01:25.723Z,64.00
2018-07-27T01:03:54.146Z,62.80
2018-07-27T01:06:22.617Z,62.90
2018-07-27T01:08:51.063Z,63.80
2018-07-27T01:11:19.499Z,65.10
2018-07-27T01:13:47.908Z,66.30
2018-07-27T01:16:16.361Z,67.20
2018-07-27T01:18:44.819Z,67.50
2018-07-27T01:23:41.436Z,67.40
2018-07-27T01:26:09.843Z,68.10
2018-07-27T01:28:38.292Z,68.40
2018-07-27T01:31:06.761Z,68.90
2018-07-27T01:33:35.245Z,68.10
2018-07-27T01:36:03.642Z,69.60
2018-07-27T01:38:32.089Z,68.40
2018-07-27T01:41:00.474Z,68.10
2018-07-27T01:43:28.948Z,67.30
2018-07-27T01:45:57.337Z,68.40
2018-07-27T01:50:54.081Z,68.00
2018-07-27T01:53:22.506Z,68.30
2018-07-27T01:55:50.899Z,67.50
2018-07-27T01:58:19.353Z,67.10
2018-07-27T02:00:47.768Z,68.80
2018-07-27T02:03:16.200Z,67.50
2018-07-27T02:05:44.584Z,66.90
2018-07-27T02:08:13.248Z,68.10
2018-07-27T02:10:41.652Z,68.20
2018-07-27T02:13:10.212Z,68.50
2018-07-27T02:15:38.514Z,69.80
2018-07-27T02:18:06.946Z,70.70
2018-07-27T02:20:35.359Z,70.50
2018-07-27T02:23:03.804Z,69.90
2018-07-27T02:28:00.447Z,72.30
2018-07-27T02:30:29.099Z,71.90
2018-07-27T02:32:57.552Z,71.80
2018-07-27T02:35:26.025Z,71.40
2018-07-27T02:37:54.479Z,72.80
2018-07-27T02:40:22.889Z,70.90
2018-07-27T02:42:51.397Z,71.30
2018-07-27T02:45:19.819Z,70.30
2018-07-27T02:47:49.663Z,70.60
2018-07-27T02:50:19.031Z,71.30
2018-07-27T02:52:47.616Z,72.00
2018-07-27T02:55:16.136Z,72.00
2018-07-27T02:57:44.540Z,72.00
2018-07-27T03:00:12.972Z,72.10
2018-07-27T03:02:41.386Z,72.40
2018-07-27T03:05:09.852Z,73.40
2018-07-27T03:07:38.304Z,72.90
2018-07-27T03:10:07.197Z,71.80
2018-07-27T03:12:35.657Z,72.60
2018-07-27T03:15:04.142Z,73.00
2018-07-27T03:17:32.652Z,72.10
2018-07-27T03:20:01.049Z,72.00
2018-07-27T03:22:29.504Z,72.10
2018-07-27T03:24:57.896Z,72.40
2018-07-27T03:27:26.363Z,72.80
2018-07-27T03:29:54.751Z,72.80
2018-07-27T03:32:23.194Z,74.50
2018-07-27T03:34:51.656Z,75.30
2018-07-27T03:37:20.089Z,74.50
2018-07-27T03:39:48.544Z,74.60
2018-07-27T03:42:16.961Z,74.50
2018-07-27T03:44:45.389Z,74.50
2018-07-27T03:47:13.787Z,74.70
2018-07-27T03:49:42.294Z,75.10
2018-07-27T03:52:10.689Z,76.20
2018-07-27T03:54:39.120Z,77.50
2018-07-27T03:57:07.694Z,77.40
2018-07-27T03:59:36.158Z,77.90
2018-07-27T04:02:04.634Z,77.80
2018-07-27T04:04:33.161Z,77.30
2018-07-27T04:07:01.616Z,76.60
2018-07-27T04:09:30.030Z,76.60
2018-07-27T04:11:58.414Z,76.60
2018-07-27T04:14:26.852Z,76.70
2018-07-27T04:16:55.224Z,74.80
2018-07-27T04:19:23.672Z,74.50
2018-07-27T04:21:52.112Z,75.10
2018-07-27T04:24:20.587Z,75.20
2018-07-27T04:26:49.011Z,75.60
2018-07-27T04:29:17.461Z,75.00
2018-07-27T04:31:45.904Z,74.30
2018-07-27T04:34:14.358Z,74.00
2018-07-27T04:36:42.784Z,71.40
2018-07-27T04:39:11.830Z,71.80
2018-07-27T04:41:40.321Z,71.00
2018-07-27T04:44:08.763Z,70.40
2018-07-27T04:46:37.201Z,69.80
2018-07-27T04:49:05.801Z,69.60
2018-07-27T04:51:34.287Z,69.60
2018-07-27T04:56:38.131Z,69.90
2018-07-27T04:59:06.487Z,69.20
2018-07-27T05:01:34.956Z,69.50
2018-07-27T05:04:03.427Z,69.00
2018-07-27T05:06:31.902Z,67.70
2018-07-27T05:09:05.819Z,67.30
2018-07-27T05:11:34.289Z,66.30
2018-07-27T05:14:02.787Z,65.30
2018-07-27T05:16:31.187Z,61.90
2018-07-27T05:21:28.076Z,55.40
2018-07-27T05:23:56.799Z,51.40
2018-07-27T05:26:25.236Z,48.50
2018-07-27T05:28:53.831Z,45.70
2018-07-27T05:31:22.281Z,43.80
2018-07-27T05:33:50.767Z,40.50
2018-07-27T05:36:19.316Z,41.40
2018-07-27T05:38:47.936Z,40.00
2018-07-27T05:41:16.467Z,38.50
2018-07-27T05:43:44.908Z,38.20
2018-07-27T05:46:13.437Z,37.50
2018-07-27T05:48:41.911Z,37.80
2018-07-27T05:51:10.576Z,40.20
2018-07-27T05:53:39.305Z,41.20
2018-07-27T05:56:07.780Z,40.60
2018-07-27T05:58:36.264Z,38.90
2018-07-27T06:01:05.040Z,38.40
2018-07-27T06:03:33.524Z,38.40
2018-07-27T06:06:01.988Z,38.80
2018-07-27T06:08:30.481Z,37.10
2018-07-27T06:10:59.043Z,35.30
2018-07-27T06:13:27.618Z,35.50
2018-07-27T06:15:57.703Z,35.20
2018-07-27T06:18:26.148Z,34.20
2018-07-27T06:20:54.774Z,33.90
2018-07-27T06:23:23.306Z,32.20
2018-07-27T06:25:51.827Z,30.80
2018-07-27T06:28:20.396Z,30.20
2018-07-27T06:30:49.015Z,29.50
2018-07-27T06:33:17.634Z,27.80
2018-07-27T06:35:46.162Z,27.30
2018-07-27T06:38:14.737Z,26.20
2018-07-27T06:40:43.359Z,26.20
2018-07-27T06:43:11.870Z,25.70
2018-07-27T06:45:40.360Z,25.80
2018-07-27T06:48:13.088Z,25.00
2018-07-27T06:50:41.643Z,24.60
2018-07-27T06:53:10.117Z,25.40
2018-07-27T06:55:38.685Z,22.30
2018-07-27T06:58:07.185Z,23.40
2018-07-27T07:00:35.800Z,22.50
2018-07-27T07:03:04.494Z,22.70
2018-07-27T07:05:33.081Z,23.00
2018-07-27T07:08:01.734Z,22.20
2018-07-27T07:10:30.262Z,21.40
2018-07-27T07:12:58.829Z,20.80
2018-07-27T07:15:27.328Z,19.90
2018-07-27T07:17:55.875Z,21.20
2018-07-27T07:20:24.604Z,20.70
2018-07-27T07:22:53.551Z,20.00
2018-07-27T07:25:22.200Z,21.40
2018-07-27T07:27:51.027Z,20.60
2018-07-27T07:30:19.549Z,20.60
2018-07-27T07:32:48.124Z,21.50
2018-07-27T07:35:16.786Z,20.20
2018-07-27T07:37:45.406Z,21.30
2018-07-27T07:43:07.474Z,23.30
2018-07-27T07:45:36.111Z,22.50
2018-07-27T07:48:04.651Z,22.70
2018-07-27T07:50:35.015Z,23.30
2018-07-27T07:53:04.576Z,24.00
2018-07-27T07:55:33.099Z,26.90
2018-07-27T07:58:01.734Z,26.20
2018-07-27T08:00:30.404Z,28.20
2018-07-27T08:02:59.009Z,28.30
2018-07-27T08:05:27.745Z,27.70
2018-07-27T08:07:56.836Z,28.10
2018-07-27T08:10:25.717Z,27.40
2018-07-27T08:12:54.653Z,27.00
2018-07-27T08:15:23.252Z,25.60
2018-07-27T08:17:51.774Z,27.10
2018-07-27T08:20:20.340Z,27.60
2018-07-27T08:22:48.909Z,27.60
2018-07-27T08:25:17.486Z,26.10
2018-07-27T08:27:47.038Z,27.90
2018-07-27T08:30:15.693Z,28.10
2018-07-27T08:32:44.531Z,29.60
2018-07-27T08:35:13.066Z,28.20
2018-07-27T08:37:41.619Z,25.50
2018-07-27T08:40:10.184Z,26.20
2018-07-27T08:45:31.840Z,27.90
2018-07-27T08:48:00.420Z,29.70
2018-07-27T08:50:29.135Z,27.70
2018-07-27T08:52:57.943Z,24.50
2018-07-27T08:55:26.494Z,23.70
2018-07-27T08:57:55.085Z,21.60
2018-07-27T09:00:33.389Z,23.50
2018-07-27T09:03:01.918Z,22.20
2018-07-27T09:05:30.475Z,21.70
2018-07-27T09:07:59.051Z,21.40
2018-07-27T09:10:27.549Z,22.50
2018-07-27T09:12:56.076Z,22.40
2018-07-27T09:15:24.618Z,22.20
2018-07-27T09:17:53.138Z,22.40
2018-07-27T09:20:21.788Z,22.00
2018-07-27T09:22:50.581Z,22.40
2018-07-27T09:25:19.371Z,21.10
2018-07-27T09:27:47.756Z,22.50
2018-07-27T09:30:16.372Z,19.70
2018-07-27T09:32:49.774Z,23.00
2018-07-27T09:35:18.396Z,20.60
2018-07-27T09:37:46.971Z,20.20
2018-07-27T09:40:16.130Z,21.40
2018-07-27T09:42:44.764Z,22.30
2018-07-27T09:45:13.429Z,22.40
2018-07-27T09:47:41.903Z,21.90
2018-07-27T09:50:10.428Z,21.30
2018-07-27T09:52:39.186Z,21.30
2018-07-27T09:55:07.751Z,21.10
2018-07-27T09:57:36.325Z,20.20
2018-07-27T10:00:05.297Z,19.60
2018-07-27T10:02:35.176Z,20.40
2018-07-27T10:05:03.912Z,19.70
2018-07-27T10:07:32.546Z,20.90
2018-07-27T10:10:01.058Z,20.00
2018-07-27T10:12:29.677Z,20.90
2018-07-27T10:14:58.294Z,20.80
2018-07-27T10:17:26.831Z,19.40
2018-07-27T10:19:55.429Z,17.70
2018-07-27T10:22:23.997Z,19.90
2018-07-27T10:24:52.611Z,18.80
2018-07-27T10:27:21.174Z,19.10
2018-07-27T10:29:49.856Z,19.70
2018-07-27T10:32:18.424Z,18.60
2018-07-27T10:34:46.895Z,17.80
2018-07-27T10:37:15.477Z,17.10
2018-07-27T10:39:44.093Z,18.70
2018-07-27T10:42:12.670Z,18.10
2018-07-27T10:44:41.150Z,19.50
2018-07-27T10:47:09.975Z,21.30
2018-07-27T10:49:38.576Z,22.10
2018-07-27T10:52:07.171Z,22.40
2018-07-27T10:54:35.696Z,19.20
2018-07-27T10:57:04.708Z,17.90
2018-07-27T10:59:33.535Z,17.40
2018-07-27T11:02:02.076Z,16.20
2018-07-27T11:04:30.587Z,17.10
2018-07-27T11:06:59.169Z,17.00
2018-07-27T11:09:27.702Z,16.80
2018-07-27T11:11:56.420Z,17.70
2018-07-27T11:14:25.000Z,18.60
2018-07-27T11:16:53.552Z,19.10
2018-07-27T11:19:22.114Z,18.10
2018-07-27T11:21:50.736Z,17.50
2018-07-27T11:24:19.343Z,18.10
2018-07-27T11:26:48.019Z,17.70
2018-07-27T11:29:16.614Z,16.20
2018-07-27T11:31:45.236Z,15.20
2018-07-27T11:34:13.791Z,14.80
2018-07-27T11:36:42.505Z,17.10
2018-07-27T11:39:12.397Z,16.10
2018-07-27T11:41:41.164Z,16.70
2018-07-27T11:44:09.752Z,16.60
2018-07-27T11:46:38.787Z,16.90
2018-07-27T11:49:07.855Z,15.40
2018-07-27T11:51:36.425Z,15.70
2018-07-27T11:54:05.386Z,15.70
2018-07-27T11:56:33.992Z,15.90
2018-07-27T11:59:02.730Z,15.10
2018-07-27T12:01:31.358Z,15.70
2018-07-27T12:04:00.093Z,16.80
2018-07-27T12:06:28.694Z,16.50
2018-07-27T12:08:58.293Z,16.50
2018-07-27T12:11:26.915Z,15.90
2018-07-27T12:13:55.642Z,14.90
2018-07-27T12:16:24.138Z,15.60
2018-07-27T12:18:52.717Z,14.90
2018-07-27T12:21:21.498Z,15.10
2018-07-27T12:23:49.924Z,14.40
2018-07-27T12:26:18.421Z,14.80
2018-07-27T12:28:47.011Z,16.60
2018-07-27T12:33:43.753Z,17.30
2018-07-27T12:36:12.389Z,18.20
2018-07-27T12:38:41.019Z,19.80
2018-07-27T12:41:09.523Z,20.60
2018-07-27T12:43:38.082Z,21.60
2018-07-27T12:46:06.739Z,21.70
2018-07-27T12:48:35.423Z,18.80
2018-07-27T12:51:03.960Z,20.40
2018-07-27T12:53:32.729Z,19.20
2018-07-27T12:56:01.600Z,20.10
2018-07-27T12:58:30.165Z,21.40
2018-07-27T13:00:58.697Z,22.20
2018-07-27T13:03:27.410Z,21.40
2018-07-27T13:05:55.977Z,17.10
2018-07-27T13:08:24.509Z,17.10
2018-07-27T13:10:53.219Z,15.20
2018-07-27T13:13:21.869Z,16.50
2018-07-27T13:15:50.414Z,16.50
2018-07-27T13:18:19.072Z,17.60
2018-07-27T13:20:53.111Z,19.90
2018-07-27T13:23:22.265Z,20.80
2018-07-27T13:26:25.378Z,22.70
2018-07-27T13:28:39.681Z,23.70
2018-07-27T13:31:08.826Z,24.90
2018-07-27T13:33:37.345Z,25.70
2018-07-27T13:36:05.906Z,26.00
2018-07-27T13:38:34.660Z,25.60
2018-07-27T13:41:03.382Z,26.00
2018-07-27T13:43:31.979Z,25.60
2018-07-27T13:46:00.524Z,26.00
2018-07-27T13:48:29.105Z,26.50
2018-07-27T13:50:59.236Z,26.70
2018-07-27T13:53:28.740Z,26.50
2018-07-27T13:55:58.673Z,26.80
2018-07-27T13:58:27.674Z,25.40
2018-07-27T14:00:56.195Z,25.10
2018-07-27T14:03:24.811Z,26.80
2018-07-27T14:05:53.320Z,26.00
2018-07-27T14:08:21.861Z,26.00
2018-07-27T14:10:51.076Z,25.80
2018-07-27T14:13:19.647Z,24.40
2018-07-27T14:15:48.205Z,24.20
2018-07-27T14:18:17.112Z,23.00
2018-07-27T14:20:45.719Z,24.00
2018-07-27T14:23:14.318Z,21.90
2018-07-27T14:25:42.895Z,23.20
2018-07-27T14:28:11.493Z,24.30
2018-07-27T14:30:40.139Z,24.90
2018-07-27T14:33:08.749Z,24.00
2018-07-27T14:35:37.617Z,24.20
2018-07-27T14:38:06.226Z,19.40
2018-07-27T14:40:34.848Z,20.20
2018-07-27T14:43:03.461Z,18.80
2018-07-27T14:45:32.093Z,17.90
2018-07-27T14:48:00.689Z,17.90
2018-07-27T14:50:29.697Z,17.60
2018-07-27T14:52:58.423Z,16.50
2018-07-27T14:55:26.997Z,16.10
2018-07-27T14:57:55.640Z,15.60
2018-07-27T15:00:24.256Z,15.90
2018-07-27T15:02:53.381Z,16.80
2018-07-27T15:05:22.492Z,16.80
2018-07-27T15:07:51.505Z,16.10
2018-07-27T15:10:20.042Z,14.90
2018-07-27T15:12:48.682Z,13.70
2018-07-27T15:15:17.311Z,13.30
2018-07-27T15:17:45.853Z,13.40
2018-07-27T15:20:14.539Z,12.30
2018-07-27T15:22:43.116Z,12.80
2018-07-27T15:25:11.615Z,13.60
2018-07-27T15:27:40.400Z,13.70
2018-07-27T15:30:09.390Z,13.20
2018-07-27T15:32:37.935Z,13.20
2018-07-27T15:35:06.597Z,14.10
2018-07-27T15:37:35.985Z,13.30
2018-07-27T15:40:04.751Z,13.80
2018-07-27T15:42:33.314Z,13.10
2018-07-27T15:45:01.887Z,13.60
2018-07-27T15:47:30.582Z,13.80
2018-07-27T15:49:59.128Z,14.20
2018-07-27T15:52:27.778Z,15.30
2018-07-27T15:54:59.409Z,15.00
2018-07-27T15:57:28.143Z,14.80
2018-07-27T15:59:56.695Z,15.10
2018-07-27T16:02:25.718Z,15.60
2018-07-27T16:04:54.330Z,14.20
2018-07-27T16:07:31.116Z,13.60
2018-07-27T16:10:00.340Z,14.20
2018-07-27T16:12:29.104Z,14.70
2018-07-27T16:15:00.984Z,14.30
2018-07-27T16:17:29.576Z,15.00
2018-07-27T16:19:58.431Z,14.90
2018-07-27T16:22:27.133Z,14.90
2018-07-27T16:24:56.416Z,14.50
2018-07-27T16:27:29.347Z,14.60
2018-07-27T16:29:58.606Z,15.00
2018-07-27T16:32:32.733Z,13.70
2018-07-27T16:35:02.793Z,14.30
2018-07-27T16:37:31.885Z,13.80
2018-07-27T16:42:49.793Z,14.10
2018-07-27T16:45:18.506Z,14.10
2018-07-27T16:47:47.189Z,14.30
2018-07-27T16:50:16.624Z,14.70
2018-07-27T16:52:45.178Z,14.90
2018-07-27T16:55:13.697Z,13.90
2018-07-27T16:57:47.355Z,14.70
2018-07-27T17:00:16.380Z,14.70
2018-07-27T17:02:45.220Z,15.20
2018-07-27T17:05:20.092Z,15.80
2018-07-27T17:07:56.323Z,16.10
2018-07-27T17:10:24.877Z,17.60
2018-07-27T17:12:55.025Z,17.00
2018-07-27T17:15:23.754Z,16.20
2018-07-27T17:17:52.757Z,16.80
2018-07-27T17:20:21.325Z,16.60
2018-07-27T17:22:50.472Z,16.40
2018-07-27T17:25:19.315Z,16.70
2018-07-27T17:27:48.127Z,17.10
2018-07-27T17:30:17.857Z,15.90
2018-07-27T17:33:01.541Z,16.60
2018-07-27T17:37:43.077Z,18.70
2018-07-27T17:40:23.130Z,22.10
2018-07-27T17:42:59.328Z,23.40
2018-07-27T17:45:48.882Z,24.90
2018-07-27T17:49:42.876Z,25.70
2018-07-27T17:53:18.981Z,27.20
2018-07-27T17:55:47.429Z,28.70
2018-07-27T18:00:43.995Z,31.00
2018-07-27T18:03:12.492Z,31.20
2018-07-27T18:05:41.014Z,31.80
2018-07-27T18:08:09.560Z,32.30
2018-07-27T18:10:38.008Z,32.90
2018-07-27T18:13:06.542Z,33.10
2018-07-27T18:15:34.933Z,33.80
2018-07-27T18:18:03.385Z,33.90
2018-07-27T18:20:31.867Z,33.40
2018-07-27T18:23:00.316Z,34.10
2018-07-27T18:25:28.768Z,34.60
2018-07-27T18:27:57.206Z,35.00
2018-07-27T18:30:25.792Z,35.10
2018-07-27T18:32:54.229Z,34.80
2018-07-27T18:35:22.733Z,35.40
2018-07-27T18:37:51.302Z,35.90
2018-07-27T18:40:19.896Z,36.20
2018-07-27T18:42:48.319Z,35.70
2018-07-27T18:45:16.956Z,36.50
2018-07-27T18:47:45.429Z,37.30
2018-07-27T18:50:13.875Z,37.20
2018-07-27T18:52:42.348Z,37.30
2018-07-27T18:55:10.794Z,37.40
2018-07-27T18:57:39.280Z,37.10
2018-07-27T19:00:08.225Z,37.40
2018-07-27T19:02:36.700Z,37.70
2018-07-27T19:05:05.278Z,37.70
2018-07-27T19:07:33.682Z,38.10
2018-07-27T19:10:02.170Z,38.50
2018-07-27T19:12:30.621Z,38.90
2018-07-27T19:14:59.044Z,39.50
2018-07-27T19:17:27.637Z,40.00
2018-07-27T19:19:56.047Z,40.20
2018-07-27T19:22:24.516Z,40.80
2018-07-27T19:24:53.107Z,41.10
2018-07-27T19:27:21.528Z,42.00
2018-07-27T19:29:49.991Z,43.20
2018-07-27T19:32:18.440Z,44.00
2018-07-27T19:34:46.870Z,44.00
2018-07-27T19:37:15.384Z,44.60
2018-07-27T19:39:43.835Z,44.90
2018-07-27T19:42:12.376Z,45.50
2018-07-27T19:44:40.885Z,45.40
2018-07-27T19:47:09.807Z,44.90
2018-07-27T19:49:38.356Z,44.20
2018-07-27T19:52:06.843Z,46.30
2018-07-27T19:54:35.317Z,46.20
2018-07-27T19:57:03.900Z,45.80
2018-07-27T19:59:32.305Z,45.10
2018-07-27T20:02:00.845Z,44.90
2018-07-27T20:04:29.604Z,44.90
2018-07-27T20:06:58.198Z,44.30
2018-07-27T20:09:26.637Z,44.40
2018-07-27T20:11:55.119Z,45.20
2018-07-27T20:14:23.581Z,46.90
2018-07-27T20:16:52.027Z,45.70
2018-07-27T20:19:20.514Z,46.10
2018-07-27T20:21:48.982Z,45.60
2018-07-27T20:24:17.417Z,47.40
2018-07-27T20:26:46.170Z,46.20
2018-07-27T20:29:14.606Z,46.70
2018-07-27T20:31:43.097Z,47.00
2018-07-27T20:34:11.576Z,46.90
2018-07-27T20:36:40.068Z,47.20
2018-07-27T20:39:10.921Z,48.10
2018-07-27T20:41:39.378Z,48.60
2018-07-27T20:44:07.881Z,49.70
2018-07-27T20:46:36.555Z,50.20
2018-07-27T20:49:05.341Z,50.60
2018-07-27T20:51:33.909Z,50.70
2018-07-27T20:54:02.557Z,51.30
2018-07-27T20:56:30.975Z,51.60
2018-07-27T21:01:27.516Z,53.10
2018-07-27T21:03:55.925Z,53.60
2018-07-27T21:06:24.373Z,53.80
2018-07-27T21:08:52.839Z,52.90
2018-07-27T21:11:21.236Z,51.80
2018-07-27T21:13:49.831Z,51.40
2018-07-27T21:16:18.536Z,50.80
2018-07-27T21:18:47.050Z,50.70
2018-07-27T21:21:15.487Z,51.80
2018-07-27T21:23:43.926Z,52.30
2018-07-27T21:26:12.363Z,52.60
2018-07-27T21:28:40.788Z,53.60
2018-07-27T21:31:09.223Z,53.20
2018-07-27T21:33:37.711Z,54.50
2018-07-27T21:36:06.204Z,54.80
2018-07-27T21:38:34.681Z,54.50
2018-07-27T21:41:03.147Z,55.00
2018-07-27T21:43:31.612Z,55.10
2018-07-27T21:46:00.189Z,56.00
2018-07-27T21:48:28.543Z,56.20
2018-07-27T21:50:56.932Z,56.10
2018-07-27T21:53:25.364Z,55.80
2018-07-27T21:55:53.767Z,56.70
2018-07-27T21:58:22.287Z,57.50
2018-07-27T22:00:50.736Z,58.40
2018-07-27T22:03:19.165Z,59.00
2018-07-27T22:05:47.658Z,59.40
2018-07-27T22:08:16.095Z,60.30
2018-07-27T22:10:44.598Z,60.60
2018-07-27T22:13:13.121Z,60.60
2018-07-27T22:15:41.489Z,57.00
2018-07-27T22:18:09.976Z,61.10
2018-07-27T22:20:38.385Z,56.60
2018-07-27T22:23:06.856Z,55.30
2018-07-27T22:25:35.326Z,54.40
2018-07-27T22:28:03.853Z,53.20
2018-07-27T22:30:32.292Z,52.00
2018-07-27T22:33:00.804Z,51.40
2018-07-27T22:35:29.196Z,51.90
2018-07-27T22:37:57.660Z,52.00
2018-07-27T22:40:26.148Z,51.60
2018-07-27T22:42:54.599Z,51.40
2018-07-27T22:45:23.007Z,51.10
2018-07-27T22:47:51.486Z,51.30
2018-07-27T22:50:19.897Z,51.50
2018-07-27T22:52:48.319Z,50.90
2018-07-27T22:55:17.056Z,50.60
2018-07-27T22:57:45.547Z,50.50
2018-07-27T23:00:15.072Z,50.10
2018-07-27T23:02:43.807Z,49.70
2018-07-27T23:05:13.040Z,49.20
2018-07-27T23:07:41.466Z,49.30
2018-07-27T23:10:10.897Z,49.60
2018-07-27T23:12:39.636Z,49.70
2018-07-27T23:15:09.923Z,50.00
2018-07-27T23:17:38.380Z,49.50
2018-07-27T23:20:11.892Z,49.70
2018-07-27T23:22:40.479Z,49.40
2018-07-27T23:25:09.024Z,49.10
2018-07-27T23:27:37.694Z,49.30
2018-07-27T23:30:08.220Z,49.10
2018-07-27T23:32:36.639Z,49.30
2018-07-27T23:35:05.212Z,49.00
2018-07-27T23:37:33.650Z,52.50
2018-07-27T23:40:02.117Z,55.70
2018-07-27T23:42:30.515Z,56.10
2018-07-27T23:44:59.037Z,57.10
2018-07-27T23:47:27.460Z,57.60
2018-07-27T23:49:55.890Z,58.10
2018-07-27T23:52:24.327Z,56.90
2018-07-27T23:54:52.759Z,56.70
2018-07-27T23:57:21.224Z,54.30
2018-07-27T23:59:49.653Z,54.20
